world map with FRA marked

FRA - Airport

This information may not be accurate or current and is not valid for navigation or flight planning. No warranty of fitness for any purpose is made or implied.

flag of Hessenflag of Germany

Donate via PayPal

Additional information is available on the NEW Great Circle Mapper

Location
City:  Frankfurt, Hessen, Germany
Name:Rhein-Main
ICAO / IATA:EDDF / FRA

Details
Type:Airport (Flugplatz, Airfield)
Use:Public/Civil
Latitude:50°02'00"N (50.033306)
Longitude:8°34'14"E (8.570456)
Elevation:364 ft (111 m)
Runways:4
Longest:13123 × 197 ft (4000 × 60 m)

Time
Timezone:UTC+1 (DST+4)
Local Time:

Weather
METAR:EDDF  190720Z 07006KT CAVOK M02/M03 Q1022 R88/15//95 NOSIG
TAF:EDDF  190500Z 1906/2012 06004KT 9999 FEW035= TAF EDDH 190500Z 1906/2012 18004KT CAVOK BECMG 1923/2001 08005KT PROB30 TEMPO 2007/2009 BKN009

Related Locations
Nearby:
Farthest:CHT: 11941 mi / 19217 km
Waitangi [Tuuta], CIT, NZ

Find:

   beyond  
but within

Other Information
Maps:
Links:
Sources:

  

Airport Diagram

Airport diagram for FRA

Airport diagram (OBSOLETE) from NGA

 


Great Circle Mapper   Great Circle Mapper
Great Circle Mapper FAQ   Great Circle Mapper FAQ
  Karl's Home Page
KLSē   KLSē Home
   GC on Facebook
Airlines of the World   Airlines of the World
Donate via PayPal


Copyright © 2004-2017, Karl L. Swartz. All rights reserved.
All trademarks mentioned herein belong to their respective owners.

Please see credits for attribution and copyright information.

Karl Swartz <karl@kls2.com>
  Powered by FreeBSD
Valid HTML 4.01!
Labeled with ICRA
hCard Microformat
Geo Microformat